Halfway's Hourly Summary for Wednesday, May 9, 2018
Hour Temp
(f)
RH
(%)
Solar Rad.
(MJ/m2)
Rainfall
(in)
Wind
(mph)
5/9/2018 12:00 AM 72 22 0 0 8.14
5/9/2018 1:00 AM 70 25 0 0 9.89
5/9/2018 2:00 AM 69 26 0 0 9.7
5/9/2018 3:00 AM 67 28 0 0 9.62
5/9/2018 4:00 AM 65 32 0 0 9.12
5/9/2018 5:00 AM 60 37 0 0 5.32
5/9/2018 6:00 AM 58 46 0 0 5.85
5/9/2018 7:00 AM 57 48 0 0 3.52
5/9/2018 8:00 AM 56 48 0.31 0 7.51
5/9/2018 9:00 AM 63 39 1.04 0 10.42
5/9/2018 10:00 AM 71 35 1.82 0 10.3
5/9/2018 11:00 AM 74 33 2.54 0 11.19
5/9/2018 12:00 PM 76 30 3.12 0 11.68
5/9/2018 1:00 PM 79 26 3.53 0 12.51
5/9/2018 2:00 PM 82 24 3.72 0 13.39
5/9/2018 3:00 PM 85 21 3.66 0 14.63
5/9/2018 4:00 PM 89 19 3.37 0 15.04
5/9/2018 5:00 PM 91 16 2.85 0 14.86
5/9/2018 6:00 PM 92 15 2.18 0 15.28
5/9/2018 7:00 PM 92 14 1.14 0 15.22
5/9/2018 8:00 PM 90 15 0.59 0 12.85
5/9/2018 9:00 PM 85 17 0.04 0 10.54
5/9/2018 10:00 PM 79 23 0 0 9.37
5/9/2018 11:00 PM 76 26 0 0 8.7
Data Summary 74 27 29.91 0.00 10.61